Time;durP1;ratioP1;P1;durP2;ratioP2;P2;SDS_P1;SDS_P2;PMS_P1;PMS_P2;Temp;Humidity;BMP_temperature;BMP_pressure;BME280_temperature;BME280_humidity;BME280_pressure;Samples;Min_cycle;Max_cycle;Signal;HPM_P1;HPM_P2
2023/07/02 00:01:08;;;;;;;17.65;9.85;;;;;;;21.81;63.19;98822.84;7818878;32;40008;-78
2023/07/02 00:05:24;;;;;;;19.23;9.93;;;;;;;21.86;62.87;98817.00;7818129;31;38242;-79
2023/07/02 00:09:41;;;;;;;22.98;9.45;;;;;;;21.82;62.75;98820.88;7818926;32;37925;-79
2023/07/02 00:13:58;;;;;;;18.62;9.45;;;;;;;21.67;63.31;98822.63;7818768;32;37229;-79
2023/07/02 00:18:17;;;;;;;16.45;9.48;;;;;;;21.72;62.95;98823.12;7818695;32;39974;-79
2023/07/02 00:22:36;;;;;;;23.55;10.88;;;;;;;21.82;62.68;98809.78;7817457;32;40544;-78
2023/07/02 00:26:52;;;;;;;22.15;10.15;;;;;;;21.65;63.09;98819.44;7818411;32;37860;-79
2023/07/02 00:31:09;;;;;;;19.33;10.57;;;;;;;21.64;63.05;98824.16;7818263;32;37488;-79
2023/07/02 00:35:25;;;;;;;18.90;9.93;;;;;;;21.65;62.84;98817.44;7818274;32;39962;-79
2023/07/02 00:39:41;;;;;;;15.43;9.80;;;;;;;21.62;62.69;98812.63;7818166;32;39658;-79
2023/07/02 00:43:58;;;;;;;19.30;10.27;;;;;;;21.63;62.54;98818.97;7818040;32;37954;-78
2023/07/02 00:48:14;;;;;;;17.15;10.25;;;;;;;21.72;61.95;98811.22;7817931;32;37992;-78
2023/07/02 00:52:30;;;;;;;21.12;10.13;;;;;;;21.61;62.32;98815.78;7817760;32;39299;-79
2023/07/02 00:56:47;;;;;;;18.08;10.20;;;;;;;21.38;63.21;98814.56;7817695;32;40802;-79
2023/07/02 01:01:03;;;;;;;18.35;9.93;;;;;;;21.44;63.08;98817.03;7817384;32;38590;-79
2023/07/02 01:05:21;;;;;;;20.12;10.27;;;;;;;21.57;62.52;98815.72;7817484;32;37814;-79
2023/07/02 01:09:38;;;;;;;17.50;9.80;;;;;;;21.47;62.53;98816.31;7817404;32;38476;-79
2023/07/02 01:13:57;;;;;;;19.42;10.73;;;;;;;21.53;62.31;98825.94;7816023;32;40045;-79
2023/07/02 01:18:14;;;;;;;15.45;9.90;;;;;;;21.36;62.74;98832.75;7816290;32;37667;-79
2023/07/02 01:22:31;;;;;;;19.90;10.85;;;;;;;21.33;62.84;98823.16;7793706;32;37102;-79
2023/07/02 01:26:47;;;;;;;17.12;10.48;;;;;;;21.27;62.94;98827.44;7792473;32;40620;-79
2023/07/02 01:31:05;;;;;;;18.92;10.60;;;;;;;21.22;63.11;98819.41;7794043;32;39401;-79
2023/07/02 01:35:21;;;;;;;17.73;10.25;;;;;;;21.09;63.50;98823.50;7792338;32;37720;-79
2023/07/02 01:39:38;;;;;;;14.02;9.35;;;;;;;21.11;63.34;98833.06;7793510;32;37221;-79
2023/07/02 01:43:54;;;;;;;18.85;10.02;;;;;;;20.90;63.77;98833.41;7793458;32;39305;-79
2023/07/02 01:48:10;;;;;;;19.62;10.35;;;;;;;20.82;63.83;98831.69;7793827;32;37822;-79
2023/07/02 01:52:27;;;;;;;20.88;9.70;;;;;;;20.87;63.50;98828.63;7793092;32;38783;-78
2023/07/02 01:56:44;;;;;;;18.62;9.05;;;;;;;20.94;63.32;98825.22;7793394;32;37426;-79
2023/07/02 02:01:00;;;;;;;20.40;9.80;;;;;;;20.82;63.82;98829.72;7793119;32;39392;-78
2023/07/02 02:05:16;;;;;;;20.40;9.15;;;;;;;20.84;63.76;98829.34;7793146;32;39866;-78
2023/07/02 02:09:33;;;;;;;16.58;9.50;;;;;;;20.84;63.66;98823.81;7793041;32;39126;-78
2023/07/02 02:13:49;;;;;;;16.95;9.48;;;;;;;21.08;62.79;98821.91;7793046;32;36830;-79
2023/07/02 02:18:06;;;;;;;16.20;9.50;;;;;;;20.96;63.05;98823.66;7793366;32;39043;-79
2023/07/02 02:22:22;;;;;;;16.98;9.57;;;;;;;21.12;62.62;98826.34;7792951;32;39953;-78
2023/07/02 02:26:38;;;;;;;18.20;10.68;;;;;;;21.09;62.58;98829.84;7792854;32;37899;-79
2023/07/02 02:30:55;;;;;;;16.02;9.73;;;;;;;20.91;63.05;98826.72;7791974;32;38006;-79
2023/07/02 02:35:11;;;;;;;16.70;9.60;;;;;;;20.89;63.37;98815.22;7792785;32;39005;-79
2023/07/02 02:39:28;;;;;;;18.33;9.30;;;;;;;21.00;62.93;98813.44;7792785;32;39959;-79
2023/07/02 02:43:44;;;;;;;16.65;9.27;;;;;;;20.95;62.96;98821.25;7791575;32;38666;-79
2023/07/02 02:48:00;;;;;;;16.75;9.55;;;;;;;20.93;63.00;98821.63;7792602;32;37110;-78
2023/07/02 02:52:18;;;;;;;18.77;9.55;;;;;;;21.10;62.50;98825.13;7792922;32;39920;-79
2023/07/02 02:56:34;;;;;;;18.08;9.25;;;;;;;20.90;62.85;98821.53;7792642;32;40842;-78
2023/07/02 03:00:51;;;;;;;20.23;9.68;;;;;;;20.99;62.24;98830.47;7792299;32;38011;-78
2023/07/02 03:05:08;;;;;;;17.42;10.30;;;;;;;20.71;62.88;98825.09;7791342;32;37634;-79
2023/07/02 03:09:24;;;;;;;17.08;9.65;;;;;;;20.62;63.17;98833.63;7791519;32;37874;-78
2023/07/02 03:13:40;;;;;;;17.67;9.45;;;;;;;20.52;63.31;98829.41;7792264;32;39891;-79
2023/07/02 03:17:57;;;;;;;17.40;9.30;;;;;;;20.52;63.27;98839.69;7791966;32;38286;-79
2023/07/02 03:22:13;;;;;;;22.27;9.13;;;;;;;20.47;63.48;98832.47;7792682;32;37013;-78
2023/07/02 03:26:30;;;;;;;22.10;9.00;;;;;;;20.41;63.65;98843.03;7792331;32;39372;-78
2023/07/02 03:30:46;;;;;;;16.08;8.85;;;;;;;20.52;63.24;98829.41;7792136;32;39940;-78
2023/07/02 03:35:03;;;;;;;20.73;8.90;;;;;;;20.38;63.64;98829.91;7792211;32;37716;-78
2023/07/02 03:39:20;;;;;;;16.80;7.82;;;;;;;20.47;63.24;98829.69;7791989;32;37929;-78
2023/07/02 03:43:36;;;;;;;18.12;8.50;;;;;;;20.46;63.39;98825.34;7791981;32;40051;-78
2023/07/02 03:47:52;;;;;;;13.52;7.78;;;;;;;20.41;63.36;98834.72;7791827;32;39911;-78
2023/07/02 03:52:09;;;;;;;15.75;8.48;;;;;;;20.53;63.07;98836.56;7792122;32;37776;-78
2023/07/02 03:56:28;;;;;;;16.23;8.52;;;;;;;20.50;63.02;98826.22;7791841;32;37883;-78
2023/07/02 04:00:44;;;;;;;18.75;8.13;;;;;;;20.48;62.97;98844.38;7791506;32;39247;-78
2023/07/02 04:05:02;;;;;;;16.60;8.02;;;;;;;20.70;62.04;98842.91;7791614;32;40867;-79
2023/07/02 04:09:18;;;;;;;18.12;8.55;;;;;;;20.62;62.73;98841.94;7791475;32;37981;-79
2023/07/02 04:13:35;;;;;;;15.27;8.50;;;;;;;20.78;62.14;98847.41;7791498;32;37140;-79
2023/07/02 04:17:51;;;;;;;16.90;8.35;;;;;;;20.82;62.14;98845.53;7791442;32;39857;-79
2023/07/02 04:22:07;;;;;;;13.85;8.02;;;;;;;20.81;61.96;98844.72;7791219;32;40861;-79
2023/07/02 04:26:26;;;;;;;14.10;8.10;;;;;;;21.00;61.57;98849.47;7791125;32;38726;-79
2023/07/02 04:31:02;;;;;;;16.25;8.27;;;;;;;20.77;62.38;98852.16;7790800;32;38294;-79
2023/07/02 04:35:19;;;;;;;24.02;8.38;;;;;;;20.89;62.23;98859.53;7791059;32;39355;-79
2023/07/02 04:39:35;;;;;;;16.98;7.85;;;;;;;20.89;62.63;98859.53;7790796;32;40075;-79
2023/07/02 04:43:52;;;;;;;17.12;8.52;;;;;;;20.95;62.48;98860.84;7790668;32;38306;-78
2023/07/02 04:48:08;;;;;;;14.38;7.85;;;;;;;21.18;61.52;98868.44;7790595;32;38077;-79
2023/07/02 04:52:25;;;;;;;14.05;7.72;;;;;;;21.25;61.72;98867.75;7791553;32;39336;-79
2023/07/02 04:56:41;;;;;;;15.38;7.65;;;;;;;21.41;62.09;98873.22;7794016;32;39603;-79
2023/07/02 05:00:57;;;;;;;16.83;7.85;;;;;;;21.47;61.69;98872.59;7792518;32;38653;-79
2023/07/02 05:05:14;;;;;;;13.77;7.65;;;;;;;21.65;60.46;98870.16;7793912;32;38066;-78
2023/07/02 05:09:30;;;;;;;17.95;7.60;;;;;;;21.81;60.10;98880.31;7793902;32;39288;-78
2023/07/02 05:13:46;;;;;;;12.32;6.93;;;;;;;21.86;58.87;98885.56;7793754;32;39945;-79
2023/07/02 05:18:03;;;;;;;14.38;7.47;;;;;;;22.01;59.09;98883.81;7794085;32;37065;-79
2023/07/02 05:22:19;;;;;;;12.82;7.05;;;;;;;21.86;58.09;98877.25;7793810;32;36866;-79
2023/07/02 05:26:36;;;;;;;11.15;6.35;;;;;;;22.00;58.17;98885.00;7793536;32;40097;-79
2023/07/02 05:30:52;;;;;;;13.18;6.32;;;;;;;21.96;58.29;98887.72;7793585;32;39983;-79
2023/07/02 05:35:09;;;;;;;12.48;5.65;;;;;;;22.09;57.99;98889.16;7793281;32;37983;-79
2023/07/02 05:39:25;;;;;;;14.02;6.12;;;;;;;22.21;57.79;98898.44;7793469;32;36834;-79
2023/07/02 05:43:42;;;;;;;12.70;6.32;;;;;;;22.23;57.34;98907.19;7793437;32;39387;-78
2023/07/02 05:47:58;;;;;;;9.85;5.82;;;;;;;21.96;58.65;98896.06;7793171;32;40134;-78
2023/07/02 05:52:14;;;;;;;10.88;6.20;;;;;;;22.08;58.80;98898.63;7793202;32;38652;-79
2023/07/02 05:56:31;;;;;;;15.63;6.18;;;;;;;22.19;59.08;98907.12;7793624;32;37960;-79
2023/07/02 06:00:49;;;;;;;8.98;5.65;;;;;;;22.17;59.35;98905.91;7793085;32;38987;-78
2023/07/02 06:05:06;;;;;;;11.98;5.87;;;;;;;22.46;57.83;98908.00;7792242;32;39090;-76
2023/07/02 06:09:23;;;;;;;11.45;5.50;;;;;;;22.26;56.64;98906.44;7792921;32;38717;-76
2023/07/02 06:13:39;;;;;;;12.13;5.28;;;;;;;22.43;57.18;98902.38;7793180;32;37476;-80
2023/07/02 06:17:55;;;;;;;12.48;6.20;;;;;;;22.23;56.55;98901.63;7793039;32;39500;-71
2023/07/02 06:22:12;;;;;;;9.02;5.03;;;;;;;21.98;59.12;98901.22;7792927;32;40077;-71
2023/07/02 06:26:28;;;;;;;8.38;4.90;;;;;;;22.79;56.78;98906.50;7794604;32;37973;-71
2023/07/02 06:30:45;;;;;;;9.48;4.90;;;;;;;22.76;55.24;98904.47;7792875;32;37813;-74
2023/07/02 06:35:01;;;;;;;9.18;4.72;;;;;;;22.62;55.97;98901.47;7813374;32;39839;-75
2023/07/02 06:39:18;;;;;;;11.70;5.07;;;;;;;22.76;54.81;98906.44;7820049;32;39889;-70
2023/07/02 06:43:34;;;;;;;8.52;4.80;;;;;;;22.86;54.91;98911.34;7819887;32;38671;-72
2023/07/02 06:47:50;;;;;;;9.30;4.60;;;;;;;23.11;54.14;98920.06;7819996;32;37902;-70
2023/07/02 06:52:07;;;;;;;12.82;5.37;;;;;;;23.20;54.02;98931.69;7819814;32;40219;-71
2023/07/02 06:56:23;;;;;;;10.52;5.12;;;;;;;23.34;53.14;98925.50;7819848;32;40538;-70
2023/07/02 07:00:39;;;;;;;8.18;4.82;;;;;;;23.08;53.81;98926.37;7819635;32;37873;-71
2023/07/02 07:04:56;;;;;;;10.57;5.30;;;;;;;23.73;52.75;98927.13;7819856;32;37119;-71
2023/07/02 07:09:12;;;;;;;12.60;5.28;;;;;;;23.94;52.57;98934.91;7819817;32;39308;-70
2023/07/02 07:13:28;;;;;;;10.38;4.85;;;;;;;24.04;52.68;98927.84;7819587;32;40824;-69
2023/07/02 07:17:45;;;;;;;7.12;3.87;;;;;;;24.31;49.59;98923.72;7819076;32;37920;-69
2023/07/02 07:22:01;;;;;;;7.07;4.25;;;;;;;24.48;49.90;98919.47;7819752;32;36802;-73
2023/07/02 07:26:17;;;;;;;9.77;4.25;;;;;;;24.72;49.28;98920.84;7819655;32;39034;-70
2023/07/02 07:30:34;;;;;;;7.97;4.50;;;;;;;24.60;49.67;98921.19;7795014;32;40163;-70
2023/07/02 07:34:50;;;;;;;7.10;3.65;;;;;;;25.15;49.54;98919.47;7800730;32;37954;-69
2023/07/02 07:39:07;;;;;;;9.73;4.55;;;;;;;25.04;49.43;98917.47;7819440;32;37408;-70
2023/07/02 07:43:23;;;;;;;6.40;3.53;;;;;;;25.34;48.09;98924.78;7819459;32;40608;-70
2023/07/02 07:47:40;;;;;;;7.82;3.35;;;;;;;24.87;48.81;98929.31;7806111;32;39692;-72
2023/07/02 07:51:56;;;;;;;9.05;3.37;;;;;;;24.84;48.36;98930.09;7791688;32;37852;-70
2023/07/02 07:56:12;;;;;;;6.43;3.10;;;;;;;25.12;46.56;98935.03;7793531;31;37811;-83
2023/07/02 08:00:28;;;;;;;11.88;3.60;;;;;;;25.41;47.66;98938.75;7779293;32;356417;-70
2023/07/02 08:04:45;;;;;;;5.53;3.08;;;;;;;25.44;45.08;98943.56;7791528;32;40861;-83
2023/07/02 08:09:03;;;;;;;4.80;2.72;;;;;;;25.38;45.23;98950.69;7802370;32;38494;-82
2023/07/02 08:13:19;;;;;;;6.15;3.17;;;;;;;25.78;45.04;98946.03;7817192;32;37855;-86
2023/07/02 08:17:44;;;;;;;4.82;2.87;;;;;;;25.77;43.56;98943.69;7812396;31;39011;-82
2023/07/02 08:22:15;;;;;;;15.73;3.37;;;;;;;26.14;42.60;98940.56;7825536;31;39650;-87
2023/07/02 08:26:32;;;;;;;4.43;2.70;;;;;;;26.21;43.47;98945.34;7819601;31;37792;-86
2023/07/02 08:30:48;;;;;;;5.12;3.03;;;;;;;26.40;42.74;98938.56;7818300;32;37091;-85
2023/07/02 08:35:05;;;;;;;11.07;3.33;;;;;;;25.91;43.85;98951.28;7801102;32;39446;-80
2023/07/02 08:39:21;;;;;;;8.00;3.90;;;;;;;26.13;42.15;98941.75;7813211;32;39610;-81
2023/07/02 08:43:38;;;;;;;7.00;3.42;;;;;;;26.10;43.30;98941.75;7817482;32;38725;-82
2023/07/02 08:47:56;;;;;;;7.07;3.20;;;;;;;25.81;44.23;98936.09;7815936;31;37091;-82
2023/07/02 08:52:12;;;;;;;6.85;3.67;;;;;;;26.69;41.68;98941.37;7790724;32;40062;-81
2023/07/02 08:56:29;;;;;;;7.25;3.83;;;;;;;27.15;39.10;98926.50;7791460;32;40232;-81
2023/07/02 09:01:09;;;;;;;10.60;3.33;;;;;;;27.44;38.75;98943.19;7815128;32;37896;-82
2023/07/02 09:05:26;;;;;;;7.00;3.15;;;;;;;27.11;38.46;98948.06;7817425;32;38116;-83
2023/07/02 09:09:46;;;;;;;5.43;3.03;;;;;;;27.43;37.51;98947.19;7814895;32;39326;-82
2023/07/02 09:14:02;;;;;;;5.82;3.00;;;;;;;27.69;37.68;98949.44;7816781;32;39839;-82
2023/07/02 09:18:24;;;;;;;6.97;3.70;;;;;;;27.97;40.07;98942.13;7817190;32;39251;-82
2023/07/02 09:22:41;;;;;;;9.63;4.07;;;;;;;27.85;37.19;98951.75;7803288;32;37138;-82
2023/07/02 09:26:59;;;;;;;6.32;3.20;;;;;;;28.41;36.74;98948.22;7789778;32;39233;-82
2023/07/02 09:31:16;;;;;;;6.60;3.20;;;;;;;28.08;37.50;98951.25;7794413;32;38968;-82
2023/07/02 09:35:32;;;;;;;5.53;3.03;;;;;;;28.14;36.21;98957.22;7793790;32;37838;-82
2023/07/02 09:39:52;;;;;;;6.87;3.20;;;;;;;28.34;36.73;98953.84;7791876;32;37774;-82
2023/07/02 09:44:09;;;;;;;9.02;3.28;;;;;;;28.26;36.43;98953.12;7793349;32;40064;-82
2023/07/02 09:48:29;;;;;;;5.47;2.70;;;;;;;28.57;37.28;98953.31;7793223;32;40873;-82
2023/07/02 09:52:46;;;;;;;6.03;3.40;;;;;;;28.94;35.57;98954.53;7793226;32;38018;-82
2023/07/02 09:57:03;;;;;;;5.53;2.78;;;;;;;29.11;36.54;98945.12;7806492;32;37775;-82
2023/07/02 10:01:20;;;;;;;6.40;3.25;;;;;;;29.32;33.71;98948.91;7793691;32;40064;-82
2023/07/02 10:05:36;;;;;;;5.45;3.22;;;;;;;28.96;35.10;98954.91;7804201;32;40612;-82
2023/07/02 10:09:53;;;;;;;4.97;3.20;;;;;;;29.00;34.21;98959.28;7810597;32;38776;-84
2023/07/02 10:14:09;;;;;;;10.65;3.78;;;;;;;29.27;33.59;98955.00;7816515;32;36701;-82
2023/07/02 10:18:27;;;;;;;4.65;2.87;;;;;;;29.52;34.63;98940.66;7792790;32;39501;-84
2023/07/02 10:22:54;;;;;;;5.95;2.80;;;;;;;29.68;34.59;98954.09;7792955;32;39830;-81
2023/07/02 10:27:11;;;;;;;7.10;3.05;;;;;;;29.30;34.27;98956.97;7792712;32;37856;-82
2023/07/02 10:31:27;;;;;;;7.68;3.45;;;;;;;28.96;33.97;98966.94;7792839;32;37114;-83
2023/07/02 10:35:49;;;;;;;6.55;3.15;;;;;;;28.96;32.53;98957.72;7792806;32;40890;-82
2023/07/02 10:40:09;;;;;;;7.87;3.30;;;;;;;28.56;32.99;98954.50;7791601;32;40842;-68
2023/07/02 10:44:25;;;;;;;8.32;3.03;;;;;;;28.79;33.48;98957.50;7792803;32;37903;-68
2023/07/02 10:48:52;;;;;;;5.65;2.90;;;;;;;28.98;33.22;98960.91;7792584;32;37954;-69
2023/07/02 10:53:16;;;;;;;11.32;3.40;;;;;;;28.46;32.92;98973.78;7792331;32;39396;-72
2023/07/02 10:57:32;;;;;;;5.47;2.62;;;;;;;28.47;33.09;98972.56;7792453;32;39927;-70
2023/07/02 11:01:51;;;;;;;9.85;3.20;;;;;;;29.17;32.61;98965.94;7802779;31;38674;-70
2023/07/02 11:06:07;;;;;;;6.95;2.70;;;;;;;28.57;34.55;98961.72;7818787;32;36996;-70
2023/07/02 11:10:26;;;;;;;5.97;2.83;;;;;;;28.40;35.07;98964.22;7812513;32;39314;-71
2023/07/02 11:14:42;;;;;;;7.12;2.60;;;;;;;28.70;34.91;98959.19;7792306;32;39947;-69
2023/07/02 11:19:09;;;;;;;6.18;2.60;;;;;;;28.83;33.58;98958.25;7793818;32;38061;-70
2023/07/02 11:23:26;;;;;;;6.18;2.72;;;;;;;28.99;33.51;98954.06;7806032;32;36760;-68
2023/07/02 11:27:43;;;;;;;5.62;2.62;;;;;;;29.03;33.15;98963.28;7803651;32;39384;-70
2023/07/02 11:32:08;;;;;;;5.78;2.62;;;;;;;29.08;33.31;98951.59;7810884;32;40141;-71
2023/07/02 11:36:25;;;;;;;7.40;2.58;;;;;;;29.20;33.81;98936.22;7802953;32;37936;-71
2023/07/02 11:40:41;;;;;;;6.50;2.50;;;;;;;29.58;34.82;98930.56;7798122;31;37612;-70
2023/07/02 11:44:57;;;;;;;4.43;2.35;;;;;;;30.04;32.55;98939.56;7811342;32;39209;-71
2023/07/02 11:49:14;;;;;;;6.15;2.90;;;;;;;29.68;33.47;98937.22;7803663;32;40835;-69
2023/07/02 11:53:30;;;;;;;14.10;2.97;;;;;;;29.35;33.47;98925.63;7805280;32;38643;-71
2023/07/02 11:57:49;;;;;;;6.78;2.90;;;;;;;29.56;34.24;98936.59;7803644;32;38264;-70
2023/07/02 12:02:08;;;;;;;3.67;1.95;;;;;;;29.85;34.70;98927.78;7802870;32;39419;-70
2023/07/02 12:06:24;;;;;;;3.28;2.03;;;;;;;29.83;31.80;98930.22;7799409;32;39900;-70
2023/07/02 12:10:41;;;;;;;4.90;2.42;;;;;;;29.70;31.91;98926.37;7791381;32;37846;-71
2023/07/02 12:14:57;;;;;;;4.57;2.05;;;;;;;30.00;32.55;98919.94;7814757;32;36795;-69
2023/07/02 12:19:14;;;;;;;6.50;2.45;;;;;;;29.80;32.70;98931.06;7818836;32;39431;-82
2023/07/02 12:23:30;;;;;;;5.12;2.10;;;;;;;29.99;33.04;98925.97;7807906;32;40756;-82
2023/07/02 12:27:47;;;;;;;3.67;1.52;;;;;;;29.43;31.93;98927.13;7805585;32;37853;-82
2023/07/02 12:32:04;;;;;;;2.53;1.50;;;;;;;28.82;33.84;98936.22;7791279;32;37752;-81
2023/07/02 12:36:20;;;;;;;1.70;1.27;;;;;;;29.77;32.08;98929.91;7791077;32;40019;-80
2023/07/02 12:40:37;;;;;;;2.58;1.20;;;;;;;30.11;30.64;98929.00;7791169;32;39883;-80
2023/07/02 12:44:53;;;;;;;1.90;1.25;;;;;;;30.78;29.62;98914.22;7818170;32;37598;-80
2023/07/02 12:49:10;;;;;;;6.28;1.35;;;;;;;30.17;29.41;98918.06;7818222;32;37732;-80
2023/07/02 12:53:27;;;;;;;2.03;1.10;;;;;;;30.42;30.29;98916.88;7818010;32;40019;-80
2023/07/02 12:57:43;;;;;;;1.87;1.42;;;;;;;31.00;31.19;98916.66;7818001;32;40538;-80
2023/07/02 13:02:00;;;;;;;2.50;1.33;;;;;;;31.07;28.84;98911.69;7808841;32;37873;-80
2023/07/02 13:06:17;;;;;;;1.98;1.30;;;;;;;31.50;28.78;98903.59;7790031;32;37888;-80
2023/07/02 13:10:34;;;;;;;2.33;1.30;;;;;;;31.82;27.57;98903.66;7800345;32;39065;-80
2023/07/02 13:14:52;;;;;;;2.67;1.27;;;;;;;31.66;27.97;98911.28;7792276;32;40105;-78
2023/07/02 13:19:08;;;;;;;2.12;1.17;;;;;;;31.65;29.00;98907.69;7793653;32;38683;-81
2023/07/02 13:23:24;;;;;;;1.70;1.48;;;;;;;31.94;27.33;98907.81;7793871;32;37237;-80
2023/07/02 13:27:41;;;;;;;1.67;1.27;;;;;;;31.90;27.40;98909.91;7805220;32;40053;-80
2023/07/02 13:31:57;;;;;;;1.87;1.30;;;;;;;31.80;29.09;98900.47;7820978;32;40683;-80
2023/07/02 13:36:14;;;;;;;1.33;1.23;;;;;;;31.70;28.22;98910.00;7819125;32;38757;-80
2023/07/02 13:40:30;;;;;;;2.55;1.25;;;;;;;31.85;28.58;98912.47;7792540;32;37722;-80
2023/07/02 13:44:47;;;;;;;1.87;1.30;;;;;;;31.76;28.30;98896.16;7793590;32;39321;-80
2023/07/02 13:49:03;;;;;;;3.08;1.25;;;;;;;32.15;27.66;98909.34;7793507;32;40961;-80
2023/07/02 13:53:20;;;;;;;4.57;1.42;;;;;;;32.02;28.51;98908.44;7793405;32;37848;-79
2023/07/02 13:57:36;;;;;;;2.08;1.45;;;;;;;31.67;28.05;98907.22;7794010;32;37906;-80
2023/07/02 14:01:52;;;;;;;3.28;1.92;;;;;;;31.86;28.43;98908.41;7792941;32;39367;-80
2023/07/02 14:06:12;;;;;;;2.75;1.87;;;;;;;31.58;28.25;98905.81;7793120;32;41478;-80
2023/07/02 14:10:28;;;;;;;4.07;1.55;;;;;;;31.88;29.51;98914.41;7793494;32;36963;-84
2023/07/02 14:14:46;;;;;;;3.25;1.67;;;;;;;31.89;28.83;98918.81;7793139;32;36972;-81
2023/07/02 14:19:03;;;;;;;4.07;1.77;;;;;;;32.21;29.04;98925.75;7793102;32;39334;-81
2023/07/02 14:23:19;;;;;;;2.08;1.50;;;;;;;31.63;27.50;98932.66;7795737;32;40101;-84
2023/07/02 14:27:35;;;;;;;2.90;1.20;;;;;;;30.68;29.90;98935.72;7814990;32;37582;-84
2023/07/02 14:31:53;;;;;;;3.37;1.40;;;;;;;30.17;30.37;98928.50;7816396;32;37783;-85
2023/07/02 14:36:10;;;;;;;5.18;1.48;;;;;;;30.31;30.60;98934.69;7809766;32;39390;-80
2023/07/02 14:40:28;;;;;;;3.05;1.60;;;;;;;30.22;31.28;98928.03;7800447;32;39852;-79
2023/07/02 14:44:46;;;;;;;4.62;2.28;;;;;;;30.25;31.98;98933.63;7817088;32;37966;-80
2023/07/02 14:49:02;;;;;;;1.90;1.60;;;;;;;30.53;31.19;98931.56;7819556;32;37997;-81
2023/07/02 14:53:19;;;;;;;2.40;1.30;;;;;;;30.52;29.54;98935.59;7820117;32;39371;-81
2023/07/02 14:57:36;;;;;;;2.30;1.30;;;;;;;29.92;30.25;98938.91;7819968;32;39969;-81
2023/07/02 15:01:53;;;;;;;1.77;1.12;;;;;;;29.95;29.71;98935.25;7819635;31;38723;-80
2023/07/02 15:06:12;;;;;;;4.40;1.35;;;;;;;30.12;28.38;98938.22;7819965;32;37125;-81
2023/07/02 15:10:29;;;;;;;2.47;1.17;;;;;;;30.43;28.58;98947.38;7819974;32;39413;-80
2023/07/02 15:14:45;;;;;;;2.50;1.35;;;;;;;30.86;26.44;98940.22;7819721;32;40964;-81
2023/07/02 15:19:02;;;;;;;2.12;1.37;;;;;;;30.86;27.60;98943.03;7819779;32;37580;-81
2023/07/02 15:23:18;;;;;;;7.62;4.20;;;;;;;31.25;26.59;98947.09;7819681;32;37838;-81
2023/07/02 15:27:35;;;;;;;3.40;2.00;;;;;;;30.65;27.54;98958.25;7818271;32;40801;-81
2023/07/02 15:31:51;;;;;;;3.08;1.42;;;;;;;31.01;27.28;98952.00;7819604;32;41364;-80
2023/07/02 15:36:10;;;;;;;2.45;1.45;;;;;;;31.40;27.40;98954.03;7819141;32;38358;-80
2023/07/02 15:40:27;;;;;;;4.60;2.00;;;;;;;30.70;28.12;98950.13;7819502;32;37089;-81
2023/07/02 15:44:45;;;;;;;4.87;1.98;;;;;;;30.08;29.94;98957.16;7819480;32;39411;-85
2023/07/02 15:49:02;;;;;;;2.67;2.03;;;;;;;29.81;30.90;98952.34;7819473;32;40935;-80
2023/07/02 15:53:20;;;;;;;5.22;1.95;;;;;;;30.28;31.26;98949.59;7819197;32;37912;-80
2023/07/02 15:57:40;;;;;;;3.03;1.52;;;;;;;30.01;31.90;98948.81;7819141;32;36554;-81
2023/07/02 16:01:57;;;;;;;6.35;3.55;;;;;;;29.50;31.93;98962.75;7819240;32;39335;-80
2023/07/02 16:06:13;;;;;;;3.70;1.80;;;;;;;29.59;32.06;98954.59;7818955;32;40974;-81
2023/07/02 16:10:31;;;;;;;2.60;1.55;;;;;;;29.65;32.41;98947.31;7818928;32;38082;-80
2023/07/02 16:14:47;;;;;;;6.18;2.20;;;;;;;29.25;33.29;98963.03;7811208;32;37863;-80
2023/07/02 16:19:03;;;;;;;4.28;1.83;;;;;;;29.33;34.03;98965.34;7803711;32;39083;-80
2023/07/02 16:23:20;;;;;;;2.83;1.40;;;;;;;28.81;34.42;98960.66;7822486;31;40159;-81
2023/07/02 16:27:36;;;;;;;3.60;1.58;;;;;;;28.58;34.60;98966.91;7840773;31;38703;-81
2023/07/02 16:31:57;;;;;;;6.18;2.15;;;;;;;28.27;35.44;98971.53;7820154;31;37755;-80
2023/07/02 16:36:15;;;;;;;2.03;1.62;;;;;;;28.18;33.57;98971.19;7811771;31;38708;-81
2023/07/02 16:40:33;;;;;;;5.45;1.52;;;;;;;28.12;33.03;98982.03;7802768;31;39692;-80
2023/07/02 16:44:50;;;;;;;3.78;1.80;;;;;;;28.42;32.94;98978.63;7818174;32;36890;-80
2023/07/02 16:49:07;;;;;;;7.65;1.80;;;;;;;28.55;32.79;98989.38;7807591;31;37937;-80
2023/07/02 16:53:23;;;;;;;4.18;1.98;;;;;;;28.41;32.74;98987.44;7799112;32;38973;-80
2023/07/02 16:57:39;;;;;;;2.80;1.80;;;;;;;28.47;32.45;98992.19;7802959;31;39745;-80
2023/07/02 17:01:58;;;;;;;3.62;1.92;;;;;;;28.03;32.91;98999.31;7829769;31;38759;-81
2023/07/02 17:06:15;;;;;;;2.60;1.83;;;;;;;28.44;32.59;98998.62;7828834;31;37075;-81
2023/07/02 17:10:31;;;;;;;2.85;2.10;;;;;;;28.37;32.49;99004.28;7820558;31;39454;-85
2023/07/02 17:14:51;;;;;;;5.28;1.77;;;;;;;28.69;32.58;99011.66;7823528;31;40522;-85
2023/07/02 17:19:07;;;;;;;3.72;2.00;;;;;;;28.76;31.53;99020.00;7797756;32;38578;-85
2023/07/02 17:23:24;;;;;;;9.18;1.90;;;;;;;28.58;32.13;99017.37;7809093;32;37090;-84
2023/07/02 17:27:40;;;;;;;3.17;2.00;;;;;;;28.72;32.22;99029.66;7807268;32;40091;-84
2023/07/02 17:32:08;;;;;;;3.05;1.70;;;;;;;28.35;32.31;99029.09;7802610;32;40858;-85
2023/07/02 17:36:24;;;;;;;4.25;2.58;;;;;;;28.16;32.87;99032.44;7800848;31;37855;-82
2023/07/02 17:40:41;;;;;;;5.78;2.30;;;;;;;27.59;33.47;99044.69;7802107;31;37322;-84
2023/07/02 17:44:59;;;;;;;2.92;2.12;;;;;;;27.45;34.13;99046.31;7801688;31;40005;-82
2023/07/02 17:49:15;;;;;;;3.12;2.00;;;;;;;27.38;34.53;99039.97;7801256;32;38970;-81
2023/07/02 17:53:32;;;;;;;6.37;1.80;;;;;;;26.95;35.23;99049.97;7807140;31;38756;-82
2023/07/02 17:57:48;;;;;;;4.82;1.87;;;;;;;26.87;35.47;99061.56;7805664;32;37822;-81
2023/07/02 18:02:06;;;;;;;4.82;2.10;;;;;;;26.48;36.42;99060.34;7792808;32;39307;-82
2023/07/02 18:06:23;;;;;;;3.87;1.65;;;;;;;25.93;36.75;99066.94;7793149;32;38917;-81
2023/07/02 18:10:41;;;;;;;6.00;1.80;;;;;;;26.27;36.35;99075.06;7808613;32;38440;-81
2023/07/02 18:14:58;;;;;;;2.97;1.40;;;;;;;26.27;36.29;99063.91;7804032;32;38422;-80
2023/07/02 18:19:15;;;;;;;4.75;1.67;;;;;;;26.21;36.23;99071.84;7818444;32;40151;-82
2023/07/02 18:23:31;;;;;;;3.15;1.90;;;;;;;25.88;36.99;99077.69;7806086;32;40798;-81
2023/07/02 18:28:05;;;;;;;2.55;1.67;;;;;;;25.85;37.07;99080.09;7817467;32;40343;-81
2023/07/02 18:32:23;;;;;;;3.67;1.90;;;;;;;25.81;37.50;99087.63;7819940;32;36815;-81
2023/07/02 18:36:39;;;;;;;1.92;1.40;;;;;;;26.17;36.85;99092.59;7826923;31;39440;-86
2023/07/02 18:41:05;;;;;;;2.25;1.50;;;;;;;25.73;37.73;99105.53;7820091;32;39609;-80
2023/07/02 18:45:22;;;;;;;2.25;1.58;;;;;;;25.54;38.01;99111.41;7818672;32;38364;-80
2023/07/02 18:49:39;;;;;;;5.00;1.90;;;;;;;25.59;37.81;99119.41;7819407;32;37883;-80
2023/07/02 18:53:56;;;;;;;7.87;3.30;;;;;;;24.89;39.13;99124.87;7818985;32;39860;-81
2023/07/02 18:58:12;;;;;;;4.65;2.10;;;;;;;25.44;38.56;99136.06;7808445;32;39411;-81
2023/07/02 19:02:28;;;;;;;5.03;1.90;;;;;;;25.04;39.33;99146.09;7795755;32;38717;-80
2023/07/02 19:06:46;;;;;;;5.20;2.05;;;;;;;24.66;40.04;99145.31;7807764;32;37291;-79
2023/07/02 19:11:06;;;;;;;4.53;1.90;;;;;;;24.42;40.57;99166.12;7791625;32;39012;-81
2023/07/02 19:15:22;;;;;;;4.57;1.75;;;;;;;24.65;40.29;99168.03;7793301;31;40952;-82
2023/07/02 19:19:40;;;;;;;5.53;2.05;;;;;;;24.87;39.99;99172.63;7814285;32;38625;-84
2023/07/02 19:23:58;;;;;;;2.08;1.60;;;;;;;24.80;40.51;99174.53;7818558;32;37159;-82
2023/07/02 19:28:15;;;;;;;5.60;1.58;;;;;;;24.78;40.58;99188.06;7819269;32;39304;-82
2023/07/02 19:32:36;;;;;;;3.60;1.92;;;;;;;24.67;40.98;99199.88;7818766;32;40976;-80
2023/07/02 19:36:52;;;;;;;2.70;1.50;;;;;;;24.37;41.37;99191.56;7818430;32;37916;-78
2023/07/02 19:41:09;;;;;;;2.45;1.50;;;;;;;24.15;42.12;99207.19;7819517;32;37082;-80
2023/07/02 19:45:25;;;;;;;3.78;1.70;;;;;;;24.32;41.71;99209.41;7819198;32;39181;-79
2023/07/02 19:49:44;;;;;;;7.53;1.73;;;;;;;24.33;41.81;99211.00;7817977;32;40732;-78
2023/07/02 19:54:03;;;;;;;4.12;1.70;;;;;;;24.27;42.25;99220.88;7817429;32;37871;-78
2023/07/02 19:58:19;;;;;;;3.97;1.77;;;;;;;24.05;42.77;99230.13;7818391;32;36319;-77
2023/07/02 20:02:37;;;;;;;3.28;1.90;;;;;;;23.99;42.68;99232.41;7808249;32;39350;-75